GMMX METAR and TAF | Updated Today

GMMX METAR

Menara Airport

Observation time: 19 min. ago

GMMX 301900Z 04005KT 010V070 CAVOK 16/05 Q1024 NOSIG

Need help? Read our tutorial on how to read METARs or read the parsed version below.

Menara Airport (GMMX) METAR

  • Weather conditions on Tue, 30 Nov 2021 19:00:00 +0000 (19 min. ago):
  • Present conditions: Dry
  • Clouds: Clear skies
  • Visibility: Greater than 10 km
  • Wind: 40 degrees at 5 knots
  • Temperature: 16 celsius
  • Dew point: 5 celsius
  • Pressure: 1024 millibars
  • Remarks: None


Useful to know...

GMMX TAF

Menara Airport

TAF GMMX 301700Z 3018/0124 2306KT 8000 NSC TEMPO 3020/3022 34016KT
Observation time: 2:19 hr. ago
Need help? Read our tutorial on how to read TAFs or read the parsed version below.

Parsed version of TAF for Menara Airport (GMMX)

  • From 30 November at 18:00 UTC, to day 01 of the month at 24:00 UTC
  • Clouds: No significant clouds are observed
  • Visibility: 8000 meters
  • Expected to arise temporarily, from 30 November at 20:00 UTC, to day 30 of the month at 22:00 UTC
  • Wind: 340 degrees at 16

Airports near GMMX

No airports found within 100nm radius.